Latest Weather Observations for Marble Bar

IDW60801

Issued at 6:34 pm WST Sunday 25 June 2017 (issued every 30 minutes, with the page automatically refreshed every 10 minutes)

About weather observations | Map of weather stations | Latest weather observations for WA | Other Formats
Station Details ID: 004106 Name: MARBLE BAR Lat: -21.18 Lon: 119.75 Height: 182.3 m
Data from the previous 72 hours. | See also: Recent months at Marble Bar
Date/Time
WST
Temp
°C
App
Temp
°C
Dew
Point
°C
Rel
Hum
%
Delta-T
°C
Wind Press
QNH
hPa
Press
MSL
hPa
Rain since
9am
mm
Dir  Spd
km/h
Gust
km/h
Spd
kts
Gust
kts
25/06:30pm 22.1 20.8 4.2 31 8.8 CALM 0 0 0 0 1012.8 1012.2 0.0
25/06:00pm 23.4 22.1 3.9 28 9.6 CALM 0 0 0 0 1012.5 1011.9 0.0
25/05:30pm 25.3 23.6 2.1 22 11.2 CALM 0 4 0 2 1012.2 1011.6 0.0
25/05:00pm 26.7 24.1 1.2 19 12.3 WNW 4 6 2 3 1012.1 1011.5 0.0
25/04:30pm 28.1 25.1 0.8 17 13.2 W 6 9 3 5 1011.7 1011.2 0.0
25/04:00pm 28.6 25.3 0.3 16 13.6 W 7 13 4 7 1011.5 1011.0 0.0
25/03:30pm 28.9 25.4 1.4 17 13.5 WNW 9 15 5 8 1011.5 1011.0 0.0
25/03:00pm 28.7 24.4 -1.4 14 14.0 W 11 17 6 9 1011.5 1011.0 0.0
25/02:30pm 29.0 25.3 -0.2 15 13.9 WNW 9 15 5 8 1011.5 1011.0 0.0
25/02:00pm 28.6 23.9 -1.5 14 14.0 WNW 13 20 7 11 1012.0 1011.4 0.0
25/01:30pm 28.2 24.4 1.7 18 13.0 W 11 20 6 11 1011.8 1011.3 0.0
25/01:00pm 28.1 24.5 0.8 17 13.2 WNW 9 19 5 10 1012.1 1011.5 0.0
25/12:30pm 27.6 23.8 1.9 19 12.6 WNW 11 17 6 9 1012.7 1012.1 0.0
25/12:00pm 26.9 23.3 0.6 18 12.5 W 9 15 5 8 1013.2 1012.6 0.0
25/11:30am 27.5 23.5 0.3 17 12.9 W 11 19 6 10 1013.5 1012.9 0.0
25/11:00am 26.3 24.6 5.8 27 10.7 SW 4 9 2 5 1014.0 1013.4 0.0
25/10:30am 25.2 23.4 7.3 32 9.5 WNW 6 9 3 5 1014.5 1013.9 0.0
25/10:00am 24.5 23.1 7.2 33 9.1 NW 4 9 2 5 1014.8 1014.3 0.0
25/09:30am 23.0 22.0 8.7 40 7.7 NNW 4 7 2 4 1015.0 1014.5 0.0
25/09:00am 22.4 21.8 10.5 47 6.6 N 4 6 2 3 1014.8 1014.3 0.0
25/08:30am 21.3 21.3 11.1 52 5.7 N 2 6 1 3 1014.8 1014.3 0.0
25/08:00am 18.6 19.1 11.7 64 3.8 CALM 0 0 0 0 1014.5 1013.9 0.0
25/07:30am 17.5 17.9 11.3 67 3.4 CALM 0 0 0 0 1014.2 1013.6 0.0
25/07:00am 16.9 17.2 11.0 68 3.2 CALM 0 0 0 0 1013.9 1013.3 0.0
25/06:30am 16.5 16.8 10.8 69 3.1 CALM 0 0 0 0 1013.7 1013.1 0.0
25/06:00am 16.8 17.0 10.6 67 3.3 CALM 0 0 0 0 1013.5 1012.9 0.0
25/05:30am 17.1 17.3 10.5 65 3.5 CALM 0 0 0 0 1013.2 1012.6 0.0
25/05:00am 17.7 17.8 10.3 62 4.0 CALM 0 0 0 0 1013.0 1012.4 0.0
25/04:30am 18.0 17.7 10.1 60 4.2 N 2 4 1 2 1013.0 1012.4 0.0
25/04:00am 18.5 18.6 10.1 58 4.5 CALM 0 0 0 0 1013.0 1012.4 0.0
25/03:30am 18.9 18.5 9.7 55 4.9 N 2 6 1 3 1013.2 1012.6 0.0
25/03:00am 19.4 18.6 9.6 53 5.2 N 4 6 2 3 1013.3 1012.7 0.0
25/02:30am 19.2 18.9 10.2 56 4.9 N 2 4 1 2 1013.4 1012.8 0.0
25/02:00am 19.6 18.7 10.6 56 4.9 NNW 6 9 3 5 1013.8 1013.2 0.0
25/01:30am 19.6 19.7 10.0 54 5.2 CALM 0 2 0 1 1014.0 1013.4 0.0
25/01:00am 20.4 19.7 9.9 51 5.7 NNW 4 7 2 4 1014.0 1013.4 0.0
25/12:30am 20.3 19.5 9.5 50 5.8 NNW 4 6 2 3 1013.9 1013.3 0.0
25/12:00am 21.4 20.8 10.3 49 6.1 WNW 4 6 2 3 1014.0 1013.4 0.0
 
Date/Time
WST
Temp
°C
App
Temp
°C
Dew
Point
°C
Rel
Hum
%
Delta-T
°C
Wind Press
QNH
hPa
Press
MSL
hPa
Rain since
9am
mm
Dir  Spd
km/h
Gust
km/h
Spd
kts
Gust
kts
24/11:30pm 22.0 21.4 10.5 48 6.3 N 4 7 2 4 1014.1 1013.5 0.0
24/11:00pm 22.0 22.0 12.3 54 5.5 NW 4 6 2 3 1014.2 1013.6 0.0
24/10:30pm 21.9 22.6 12.2 54 5.5 CALM 0 4 0 2 1014.1 1013.5 0.0
24/10:00pm 22.9 22.4 12.2 51 6.1 N 6 7 3 4 1014.2 1013.6 0.0
24/09:30pm 23.0 22.9 12.0 50 6.3 NW 4 6 2 3 1014.2 1013.6 0.0
24/09:00pm 23.4 22.8 11.8 48 6.6 NW 6 7 3 4 1014.1 1013.5 0.0
24/08:30pm 23.7 23.5 11.7 47 6.8 NNW 4 9 2 5 1013.8 1013.2 0.0
24/08:00pm 23.9 23.4 11.9 47 6.9 N 6 7 3 4 1013.6 1013.0 0.0
24/07:30pm 24.4 24.3 12.0 46 7.1 NW 4 6 2 3 1013.4 1012.8 0.0
24/07:00pm 25.2 24.7 12.1 44 7.6 NW 6 7 3 4 1013.2 1012.6 0.0
24/06:30pm 25.3 25.1 11.8 43 7.7 WNW 4 6 2 3 1013.1 1012.5 0.0
24/06:00pm 25.6 25.4 11.7 42 8.0 NW 4 6 2 3 1012.7 1012.1 0.0
24/05:30pm 26.2 25.4 11.2 39 8.6 NNW 6 7 3 4 1012.5 1011.9 0.0
24/05:00pm 26.7 25.3 10.8 37 9.0 NNW 9 13 5 7 1012.2 1011.6 0.0
24/04:30pm 27.0 26.0 11.1 37 9.1 NNW 7 15 4 8 1012.0 1011.4 0.0
24/04:00pm 27.2 25.5 11.3 37 9.1 NNW 11 15 6 8 1011.7 1011.2 0.0
24/03:30pm 27.6 26.3 11.2 36 9.4 NNW 9 13 5 7 1011.5 1011.0 0.0
24/03:00pm 27.5 26.5 11.1 36 9.4 NW 7 11 4 6 1011.6 1011.1 0.0
24/02:30pm 28.1 26.8 11.2 35 9.7 NW 9 13 5 7 1011.5 1011.0 0.0
24/02:00pm 28.1 26.7 10.8 34 9.9 NNW 9 17 5 9 1011.7 1011.2 0.0
24/01:30pm 28.0 27.2 11.1 35 9.7 W 6 11 3 6 1012.3 1011.7 0.0
24/01:00pm 27.2 26.0 10.4 35 9.5 WNW 7 13 4 7 1012.5 1011.9 0.0
24/12:30pm 27.3 25.8 10.5 35 9.5 WNW 9 15 5 8 1012.9 1012.3 0.0
24/12:00pm 27.9 26.7 9.7 32 10.2 NNW 6 11 3 6 1013.4 1012.8 0.0
24/11:30am 27.2 26.4 9.5 33 9.9 WNW 4 9 2 5 1014.0 1013.4 0.0
24/11:00am 26.5 25.6 10.6 37 9.0 NNW 6 11 3 6 1014.4 1013.8 0.0
24/10:30am 26.3 25.5 10.9 38 8.7 WNW 6 11 3 6 1014.9 1014.4 0.0
24/10:00am 25.2 25.7 14.0 49 6.7 NW 4 6 2 3 1015.2 1014.7 0.0
24/09:30am 23.4 25.0 14.9 59 5.1 CALM 0 2 0 1 1015.4 1014.9 0.0
24/09:00am 22.5 24.0 15.6 65 4.2 ENE 2 4 1 2 1015.4 1014.9 0.0
24/08:30am 21.0 22.5 15.8 72 3.1 SE 2 4 1 2 1015.4 1014.9 0.0
24/08:00am 19.9 21.6 15.3 75 2.7 CALM 0 2 0 1 1015.0 1014.5 0.0
24/07:30am 18.5 19.7 14.8 79 2.2 SSE 2 4 1 2 1014.6 1014.1 0.0
24/07:00am 17.6 18.6 14.3 81 1.9 SE 2 4 1 2 1014.1 1013.5 0.0
24/06:30am 17.5 18.3 13.8 79 2.1 SE 2 4 1 2 1014.0 1013.4 0.0
24/06:00am 17.2 18.0 12.7 75 2.5 CALM 0 0 0 0 1013.7 1013.1 0.0
24/05:30am 17.1 17.8 12.2 73 2.7 CALM 0 0 0 0 1013.4 1012.8 0.0
24/05:00am 17.1 17.9 12.4 74 2.6 CALM 0 0 0 0 1013.5 1012.9 0.0
24/04:30am 17.4 17.7 12.3 72 2.8 SSE 2 4 1 2 1013.5 1012.9 0.0
24/04:00am 16.9 17.5 12.0 73 2.7 CALM 0 2 0 1 1013.5 1012.9 0.0
24/03:30am 17.0 17.2 11.9 72 2.8 ENE 2 4 1 2 1013.6 1013.0 0.0
24/03:00am 16.8 17.3 11.5 71 2.9 CALM 0 0 0 0 1013.7 1013.1 0.0
24/02:30am 17.1 17.2 11.6 70 3.0 SSE 2 4 1 2 1013.9 1013.3 0.0
24/02:00am 17.6 17.0 11.6 68 3.3 SSE 6 6 3 3 1014.1 1013.5 0.0
24/01:30am 17.7 17.7 11.3 66 3.5 SE 2 4 1 2 1014.2 1013.6 0.0
24/01:00am 17.8 17.8 11.1 65 3.7 ESE 2 4 1 2 1014.5 1013.9 0.0
24/12:30am 17.9 18.0 11.5 66 3.5 ENE 2 4 1 2 1014.3 1013.7 0.0
24/12:00am 18.4 18.5 11.5 64 3.8 ESE 2 4 1 2 1014.4 1013.8 0.0
 
Date/Time
WST
Temp
°C
App
Temp
°C
Dew
Point
°C
Rel
Hum
%
Delta-T
°C
Wind Press
QNH
hPa
Press
MSL
hPa
Rain since
9am
mm
Dir  Spd
km/h
Gust
km/h
Spd
kts
Gust
kts
23/11:30pm 19.0 19.0 11.1 60 4.3 SSE 2 4 1 2 1014.6 1014.1 0.0
23/11:00pm 19.3 19.7 11.3 60 4.4 CALM 0 0 0 0 1014.6 1014.1 0.0
23/10:30pm 19.8 19.9 11.6 59 4.6 NNE 2 4 1 2 1014.8 1014.3 0.0
23/10:00pm 19.7 19.9 11.7 60 4.5 NNE 2 4 1 2 1014.8 1014.3 0.0
23/09:30pm 20.4 20.5 11.6 57 4.9 N 2 4 1 2 1014.7 1014.2 0.0
23/09:00pm 21.0 21.1 11.6 55 5.3 S 2 6 1 3 1014.6 1014.1 0.0
23/08:30pm 21.7 22.3 12.0 54 5.5 CALM 0 0 0 0 1014.6 1014.1 0.0
23/08:00pm 22.3 23.0 12.3 53 5.7 CALM 0 0 0 0 1014.5 1013.9 0.0
23/07:30pm 23.1 23.7 11.8 49 6.4 CALM 0 0 0 0 1014.4 1013.8 0.0
23/07:00pm 23.2 23.2 11.3 47 6.7 WSW 2 4 1 2 1014.1 1013.5 0.0
23/06:30pm 24.6 24.2 11.2 43 7.6 NNW 4 6 2 3 1013.7 1013.1 0.0
23/06:00pm 25.3 24.5 11.1 41 8.1 NW 6 7 3 4 1013.5 1012.9 0.0
23/05:30pm 26.4 25.3 10.5 37 9.0 NW 7 11 4 6 1013.1 1012.5 0.0
23/05:00pm 27.2 26.1 10.0 34 9.7 NW 6 11 3 6 1013.0 1012.4 0.0
23/04:30pm 27.9 25.9 8.7 30 10.6 NW 9 13 5 7 1012.8 1012.2 0.0
23/04:00pm 28.5 25.7 8.7 29 11.0 WNW 13 20 7 11 1012.9 1012.3 0.0
23/03:30pm 28.9 26.1 8.6 28 11.2 WNW 13 22 7 12 1013.1 1012.5 0.0
23/03:00pm 29.4 27.2 7.9 26 11.8 WNW 9 15 5 8 1013.0 1012.4 0.0
23/02:30pm 29.1 26.5 7.7 26 11.7 NW 11 20 6 11 1013.0 1012.4 0.0
23/02:00pm 29.6 26.7 8.1 26 11.9 WNW 13 20 7 11 1013.1 1012.5 0.0
23/01:30pm 29.3 27.1 7.8 26 11.8 WNW 9 20 5 11 1013.5 1012.9 0.0
23/01:00pm 28.8 27.1 7.4 26 11.6 W 6 11 3 6 1013.9 1013.3 0.0
23/12:30pm 28.0 25.7 7.3 27 11.2 W 9 13 5 7 1014.4 1013.8 0.0
23/12:00pm 28.3 27.2 7.0 26 11.4 NNE 2 7 1 4 1015.0 1014.5 0.0
23/11:30am 27.8 25.7 6.0 25 11.5 W 6 9 3 5 1015.4 1014.9 0.0
23/11:00am 26.8 24.9 6.8 28 10.6 W 6 9 3 5 1016.0 1015.5 0.0
23/10:30am 26.2 25.0 8.2 32 9.8 SSE 4 9 2 5 1016.5 1016.0 0.0
23/10:00am 25.3 23.6 8.3 34 9.2 ESE 7 11 4 6 1016.8 1016.3 0.0
23/09:30am 24.3 22.6 8.3 36 8.6 SSE 7 11 4 6 1016.9 1016.4 0.0
23/09:00am 23.1 21.0 8.4 39 7.9 SSE 9 13 5 7 1016.9 1016.4 0.0
23/08:30am 22.3 19.8 8.4 41 7.4 SSE 11 13 6 7 1016.8 1016.3 0.0
23/08:00am 21.0 19.4 8.6 45 6.6 SSW 7 9 4 5 1016.6 1016.1 0.0
23/07:30am 17.9 16.6 9.3 57 4.5 SW 6 6 3 3 1016.4 1015.9 0.0
23/07:00am 15.8 15.5 8.8 63 3.6 CALM 0 0 0 0 1016.3 1015.8 0.0
23/06:30am 16.6 16.3 8.6 59 4.1 CALM 0 4 0 2 1016.1 1015.6 0.0
23/06:00am 16.4 15.8 8.9 61 3.9 SSW 2 4 1 2 1015.9 1015.4 0.0
23/05:30am 16.8 15.4 9.0 60 4.1 SSW 6 9 3 5 1016.0 1015.5 0.0
23/05:00am 16.6 15.2 8.8 60 4.0 SW 6 7 3 4 1016.0 1015.5 0.0
23/04:30am 17.3 16.6 8.4 56 4.6 SE 2 4 1 2 1016.0 1015.5 0.0
23/04:00am 15.8 15.5 8.5 62 3.7 CALM 0 6 0 3 1016.1 1015.6 0.0
23/03:30am 16.2 15.8 8.4 60 4.0 CALM 0 0 0 0 1016.1 1015.6 0.0
23/03:00am 16.2 15.8 8.4 60 4.0 CALM 0 0 0 0 1016.2 1015.7 0.0
23/02:30am 16.1 15.7 8.1 59 4.1 CALM 0 0 0 0 1016.1 1015.6 0.0
23/02:00am 16.8 16.0 8.0 56 4.5 N 2 6 1 3 1016.1 1015.6 0.0
23/01:30am 16.6 16.2 8.1 57 4.3 CALM 0 0 0 0 1016.3 1015.8 0.0
23/01:00am 16.8 16.3 7.7 55 4.6 CALM 0 0 0 0 1016.5 1016.0 0.0
23/12:30am 18.2 16.6 7.9 51 5.3 E 6 7 3 4 1016.5 1016.0 0.0
23/12:00am 16.6 15.7 7.8 56 4.5 SE 2 6 1 3 1016.7 1016.2 0.0
 
Date/Time
WST
Temp
°C
App
Temp
°C
Dew
Point
°C
Rel
Hum
%
Delta-T
°C
Wind Press
QNH
hPa
Press
MSL
hPa
Rain since
9am
mm
Dir  Spd
km/h
Gust
km/h
Spd
kts
Gust
kts
22/11:30pm 16.6 15.8 8.1 57 4.3 E 2 4 1 2 1016.5 1016.0 0.0
22/11:00pm 17.5 16.7 8.1 54 4.8 ESE 2 4 1 2 1016.5 1016.0 0.0
22/10:30pm 18.1 17.7 8.1 52 5.2 CALM 0 0 0 0 1016.8 1016.3 0.0
22/10:00pm 18.2 17.0 7.9 51 5.3 NE 4 6 2 3 1016.4 1015.9 0.0
22/09:30pm 19.3 18.8 8.0 48 5.9 CALM 0 2 0 1 1016.7 1016.2 0.0
22/09:00pm 21.2 20.3 7.8 42 7.0 NNE 2 6 1 3 1016.4 1015.9 0.0
22/08:30pm 22.0 21.1 7.8 40 7.5 S 2 2 1 1 1016.1 1015.6 0.0
22/08:00pm 22.4 21.9 7.8 39 7.7 CALM 0 2 0 1 1016.0 1015.5 0.0
22/07:30pm 22.4 21.8 7.4 38 7.8 CALM 0 2 0 1 1016.0 1015.5 0.0
22/07:00pm 22.4 21.8 7.4 38 7.8 CALM 0 0 0 0 1015.6 1015.1 0.0

Other Formats:

Comma delimited format used in spreadsheet applications
http://www.bom.gov.au/fwo/IDW60801/IDW60801.95317.axf

JavaScript Object Notation format (JSON) in row-major order
http://www.bom.gov.au/fwo/IDW60801/IDW60801.95317.json